createdAt,value
2018-02-02T00:01:56.842Z,10.38
2018-02-02T00:04:23.727Z,10.27
2018-02-02T00:06:50.895Z,9.82
2018-02-02T00:09:17.791Z,10.18
2018-02-02T00:11:44.635Z,10.10
2018-02-02T00:14:11.730Z,9.80
2018-02-02T00:16:38.592Z,9.97
2018-02-02T00:19:05.450Z,10.10
2018-02-02T00:21:32.309Z,10.65
2018-02-02T00:23:59.127Z,9.77
2018-02-02T00:26:25.968Z,9.25
2018-02-02T00:28:52.838Z,10.73
2018-02-02T00:31:19.729Z,10.50
2018-02-02T00:33:46.560Z,9.90
2018-02-02T00:36:13.455Z,10.70
2018-02-02T00:38:40.294Z,10.70
2018-02-02T00:41:07.152Z,10.30
2018-02-02T00:43:34.035Z,10.73
2018-02-02T00:46:00.892Z,11.10
2018-02-02T00:48:27.739Z,10.90
2018-02-02T00:50:54.587Z,10.60
2018-02-02T00:53:21.422Z,10.68
2018-02-02T00:55:48.307Z,11.10
2018-02-02T00:58:15.168Z,10.77
2018-02-02T01:00:42.016Z,11.32
2018-02-02T01:03:08.886Z,11.30
2018-02-02T01:05:35.787Z,11.60
2018-02-02T01:08:02.599Z,11.40
2018-02-02T01:10:29.426Z,10.90
2018-02-02T01:12:56.303Z,11.07
2018-02-02T01:15:23.182Z,11.30
2018-02-02T01:17:50.123Z,11.30
2018-02-02T01:20:17.316Z,11.27
2018-02-02T01:22:44.138Z,11.60
2018-02-02T01:25:11.003Z,11.70
2018-02-02T01:27:37.887Z,11.15
2018-02-02T01:30:04.753Z,11.52
2018-02-02T01:32:31.616Z,12.05
2018-02-02T01:34:58.462Z,12.25
2018-02-02T01:37:25.344Z,11.57
2018-02-02T01:39:52.170Z,12.80
2018-02-02T01:42:19.015Z,12.50
2018-02-02T01:44:45.849Z,11.70
2018-02-02T01:47:12.996Z,12.60
2018-02-02T01:49:39.854Z,12.30
2018-02-02T01:52:06.711Z,12.40
2018-02-02T01:54:33.563Z,12.55
2018-02-02T01:57:00.428Z,12.77
2018-02-02T01:59:27.304Z,13.13
2018-02-02T02:01:54.470Z,12.83
2018-02-02T02:04:21.332Z,12.70
2018-02-02T02:06:48.195Z,13.15
2018-02-02T02:09:15.088Z,13.20
2018-02-02T02:11:41.931Z,12.70
2018-02-02T02:14:08.750Z,13.05
2018-02-02T02:16:35.936Z,13.33
2018-02-02T02:19:02.804Z,12.45
2018-02-02T02:21:29.683Z,12.60
2018-02-02T02:23:56.536Z,13.50
2018-02-02T02:26:23.720Z,13.52
2018-02-02T02:28:50.603Z,13.43
2018-02-02T02:31:17.464Z,13.65
2018-02-02T02:33:44.316Z,13.30
2018-02-02T02:36:11.170Z,13.77
2018-02-02T02:38:38.032Z,12.80
2018-02-02T02:41:04.896Z,12.65
2018-02-02T02:43:32.184Z,13.48
2018-02-02T02:45:59.015Z,13.35
2018-02-02T02:48:25.848Z,12.68
2018-02-02T02:50:52.703Z,13.30
2018-02-02T02:55:52.670Z,13.50
2018-02-02T02:58:19.536Z,13.07
2018-02-02T03:00:46.699Z,13.40
2018-02-02T03:03:13.844Z,12.75
2018-02-02T03:05:40.654Z,13.55
2018-02-02T03:08:07.556Z,13.65
2018-02-02T03:10:34.379Z,12.95
2018-02-02T03:13:01.214Z,13.40
2018-02-02T03:15:28.044Z,13.20
2018-02-02T03:17:54.898Z,13.68
2018-02-02T03:20:21.769Z,14.18
2018-02-02T03:22:48.636Z,13.93
2018-02-02T03:25:15.479Z,14.15
2018-02-02T03:27:42.332Z,14.60
2018-02-02T03:30:09.208Z,14.30
2018-02-02T03:32:36.080Z,13.90
2018-02-02T03:35:03.214Z,13.90
2018-02-02T03:37:30.366Z,14.65
2018-02-02T03:39:57.228Z,14.98
2018-02-02T03:42:24.351Z,15.48
2018-02-02T03:44:51.252Z,15.27
2018-02-02T03:47:18.354Z,14.85
2018-02-02T03:49:45.244Z,14.10
2018-02-02T03:52:12.144Z,15.10
2018-02-02T03:54:39.003Z,14.70
2018-02-02T03:57:05.827Z,15.07
2018-02-02T03:59:32.687Z,15.13
2018-02-02T04:01:59.547Z,15.90
2018-02-02T04:04:26.389Z,15.40
2018-02-02T04:06:53.240Z,15.10
2018-02-02T04:09:20.095Z,15.60
2018-02-02T04:11:46.973Z,15.07
2018-02-02T04:14:13.832Z,14.68
2018-02-02T04:16:40.696Z,14.73
2018-02-02T04:19:07.548Z,14.65
2018-02-02T04:21:34.663Z,15.25
2018-02-02T04:24:01.482Z,14.90
2018-02-02T04:26:28.370Z,15.07
2018-02-02T04:28:55.190Z,15.13
2018-02-02T04:31:22.100Z,15.13
2018-02-02T04:33:49.188Z,15.52
2018-02-02T04:36:16.039Z,16.55
2018-02-02T04:38:42.898Z,15.57
2018-02-02T04:41:09.756Z,15.45
2018-02-02T04:43:36.637Z,15.40
2018-02-02T04:46:03.491Z,14.90
2018-02-02T04:48:30.363Z,14.63
2018-02-02T04:50:57.198Z,14.90
2018-02-02T04:53:24.043Z,13.48
2018-02-02T04:55:50.924Z,13.77
2018-02-02T04:58:17.772Z,14.30
2018-02-02T05:00:44.619Z,13.20
2018-02-02T05:03:11.495Z,13.62
2018-02-02T05:05:38.342Z,13.93
2018-02-02T05:08:05.211Z,12.90
2018-02-02T05:10:32.096Z,12.48
2018-02-02T05:12:58.965Z,12.43
2018-02-02T05:15:25.811Z,12.50
2018-02-02T05:17:52.631Z,11.82
2018-02-02T05:20:19.496Z,12.50
2018-02-02T05:22:46.306Z,12.70
2018-02-02T05:25:13.146Z,12.07
2018-02-02T05:27:40.008Z,12.50
2018-02-02T05:30:06.823Z,12.07
2018-02-02T05:32:33.752Z,12.52
2018-02-02T05:35:00.637Z,11.80
2018-02-02T05:37:27.511Z,12.20
2018-02-02T05:39:54.356Z,12.60
2018-02-02T05:42:21.203Z,11.90
2018-02-02T05:44:48.356Z,12.60
2018-02-02T05:47:15.205Z,12.50
2018-02-02T05:49:42.098Z,13.13
2018-02-02T05:52:08.945Z,14.20
2018-02-02T05:54:35.784Z,13.88
2018-02-02T05:57:02.598Z,12.73
2018-02-02T05:59:29.448Z,13.82
2018-02-02T06:01:56.311Z,13.65
2018-02-02T06:04:23.127Z,12.20
2018-02-02T06:06:50.253Z,12.80
2018-02-02T06:09:17.100Z,12.40
2018-02-02T06:11:43.957Z,12.10
2018-02-02T06:14:10.793Z,11.63
2018-02-02T06:16:37.654Z,11.43
2018-02-02T06:19:10.820Z,11.75
2018-02-02T06:21:37.663Z,12.68
2018-02-02T06:24:04.524Z,12.68
2018-02-02T06:26:31.380Z,13.73
2018-02-02T06:28:58.245Z,12.80
2018-02-02T06:31:25.074Z,12.70
2018-02-02T06:33:52.284Z,12.50
2018-02-02T06:36:19.125Z,12.77
2018-02-02T06:38:45.974Z,12.65
2018-02-02T06:41:12.849Z,11.80
2018-02-02T06:43:39.687Z,11.35
2018-02-02T06:46:06.527Z,11.60
2018-02-02T06:48:33.342Z,11.73
2018-02-02T06:51:00.168Z,11.33
2018-02-02T06:53:26.982Z,10.80
2018-02-02T06:55:53.861Z,10.80
2018-02-02T06:58:20.699Z,11.30
2018-02-02T07:00:47.758Z,10.50
2018-02-02T07:03:14.602Z,11.10
2018-02-02T07:05:41.761Z,9.97
2018-02-02T07:08:08.594Z,10.43
2018-02-02T07:10:35.414Z,10.10
2018-02-02T07:13:02.282Z,9.07
2018-02-02T07:15:29.136Z,10.10
2018-02-02T07:17:55.983Z,9.80
2018-02-02T07:20:22.881Z,9.67
2018-02-02T07:22:49.962Z,10.47
2018-02-02T07:25:16.786Z,10.00
2018-02-02T07:27:43.648Z,10.10
2018-02-02T07:30:10.803Z,9.50
2018-02-02T07:32:37.667Z,9.80
2018-02-02T07:35:04.790Z,9.30
2018-02-02T07:37:31.670Z,9.70
2018-02-02T07:39:58.532Z,9.75
2018-02-02T07:42:25.397Z,9.18
2018-02-02T07:44:52.267Z,8.27
2018-02-02T07:47:19.099Z,9.20
2018-02-02T07:49:46.259Z,9.20
2018-02-02T07:52:13.414Z,8.60
2018-02-02T07:54:40.270Z,8.67
2018-02-02T07:57:07.151Z,8.80
2018-02-02T07:59:33.975Z,8.30
2018-02-02T08:02:00.811Z,8.20
2018-02-02T08:04:27.940Z,7.70
2018-02-02T08:06:54.812Z,8.38
2018-02-02T08:09:21.623Z,7.90
2018-02-02T08:11:48.776Z,8.00
2018-02-02T08:14:15.594Z,8.30
2018-02-02T08:16:42.414Z,7.80
2018-02-02T08:19:09.259Z,7.87
2018-02-02T08:21:36.086Z,7.67
2018-02-02T08:24:02.933Z,7.30
2018-02-02T08:26:29.797Z,7.18
2018-02-02T08:28:56.656Z,7.45
2018-02-02T08:31:23.495Z,7.40
2018-02-02T08:33:50.373Z,7.37
2018-02-02T08:36:17.199Z,7.10
2018-02-02T08:38:44.064Z,7.30
2018-02-02T08:41:10.945Z,6.80
2018-02-02T08:43:37.816Z,6.47
2018-02-02T08:46:04.635Z,6.80
2018-02-02T08:48:31.470Z,6.57
2018-02-02T08:50:58.291Z,6.68
2018-02-02T08:53:25.119Z,7.00
2018-02-02T08:55:52.032Z,6.83
2018-02-02T08:58:18.949Z,6.97
2018-02-02T09:00:45.762Z,7.20
2018-02-02T09:03:12.604Z,7.00
2018-02-02T09:05:39.475Z,6.90
2018-02-02T09:08:06.299Z,6.82
2018-02-02T09:10:33.119Z,6.80
2018-02-02T09:12:59.946Z,7.37
2018-02-02T09:15:26.787Z,7.18
2018-02-02T09:17:53.953Z,7.10
2018-02-02T09:20:20.786Z,7.37
2018-02-02T09:22:47.640Z,7.85
2018-02-02T09:25:14.470Z,7.70
2018-02-02T09:27:41.318Z,7.05
2018-02-02T09:30:08.160Z,7.50
2018-02-02T09:32:34.991Z,7.70
2018-02-02T09:35:01.817Z,7.15
2018-02-02T09:37:28.623Z,7.50
2018-02-02T09:39:55.480Z,7.65
2018-02-02T09:42:22.320Z,7.65
2018-02-02T09:44:49.237Z,7.70
2018-02-02T09:47:16.370Z,7.37
2018-02-02T09:49:43.236Z,7.00
2018-02-02T09:52:10.447Z,6.90
2018-02-02T09:54:37.315Z,7.20
2018-02-02T09:57:04.466Z,6.70
2018-02-02T09:59:31.294Z,6.60
2018-02-02T10:01:58.467Z,6.70
2018-02-02T10:04:25.391Z,6.90
2018-02-02T10:06:52.221Z,6.83
2018-02-02T10:09:19.061Z,6.50
2018-02-02T10:11:45.923Z,7.22
2018-02-02T10:14:12.855Z,6.43
2018-02-02T10:16:39.688Z,7.10
2018-02-02T10:19:06.599Z,6.80
2018-02-02T10:21:33.466Z,6.80
2018-02-02T10:24:00.286Z,6.45
2018-02-02T10:26:27.138Z,7.05
2018-02-02T10:28:54.244Z,7.10
2018-02-02T10:31:21.099Z,7.40
2018-02-02T10:33:47.926Z,7.18
2018-02-02T10:36:14.754Z,6.45
2018-02-02T10:38:41.631Z,6.35
2018-02-02T10:41:08.765Z,6.32
2018-02-02T10:43:35.606Z,6.60
2018-02-02T10:46:02.525Z,6.30
2018-02-02T10:48:29.363Z,7.18
2018-02-02T10:50:56.447Z,6.28
2018-02-02T10:53:23.291Z,6.22
2018-02-02T10:55:50.118Z,6.40
2018-02-02T10:58:16.962Z,6.30
2018-02-02T11:00:43.807Z,6.15
2018-02-02T11:03:10.614Z,5.97
2018-02-02T11:05:37.459Z,5.90
2018-02-02T11:08:04.301Z,6.10
2018-02-02T11:10:31.147Z,6.30
2018-02-02T11:12:58.241Z,6.15
2018-02-02T11:15:25.096Z,6.47
2018-02-02T11:17:51.898Z,5.90
2018-02-02T11:20:18.726Z,5.85
2018-02-02T11:22:45.664Z,5.80
2018-02-02T11:25:12.514Z,6.20
2018-02-02T11:27:39.364Z,5.60
2018-02-02T11:30:06.243Z,6.37
2018-02-02T11:32:33.116Z,5.45
2018-02-02T11:34:59.984Z,5.30
2018-02-02T11:37:26.848Z,5.70
2018-02-02T11:39:53.685Z,5.40
2018-02-02T11:42:20.522Z,5.55
2018-02-02T11:44:47.381Z,5.60
2018-02-02T11:47:14.235Z,5.40
2018-02-02T11:49:41.059Z,5.10
2018-02-02T11:52:07.916Z,5.32
2018-02-02T11:54:34.764Z,5.45
2018-02-02T11:57:01.592Z,6.10
2018-02-02T11:59:28.443Z,5.40
2018-02-02T12:01:55.313Z,4.87
2018-02-02T12:04:22.143Z,5.10
2018-02-02T12:06:48.975Z,5.50
2018-02-02T12:09:15.799Z,5.10
2018-02-02T12:11:42.652Z,5.90
2018-02-02T12:14:09.532Z,4.72
2018-02-02T12:16:36.677Z,5.10
2018-02-02T12:19:03.528Z,5.20
2018-02-02T12:21:30.672Z,5.40
2018-02-02T12:23:57.478Z,4.93
2018-02-02T12:26:24.344Z,6.57
2018-02-02T12:28:51.211Z,6.12
2018-02-02T12:31:18.046Z,4.72
2018-02-02T12:33:44.954Z,5.05
2018-02-02T12:36:12.136Z,4.68
2018-02-02T12:38:38.962Z,4.57
2018-02-02T12:41:05.795Z,4.82
2018-02-02T12:43:32.652Z,4.72
2018-02-02T12:45:59.483Z,4.87
2018-02-02T12:48:32.242Z,5.40
2018-02-02T12:51:00.079Z,5.03
2018-02-02T12:53:27.208Z,5.40
2018-02-02T12:55:54.019Z,5.28
2018-02-02T12:58:20.891Z,5.40
2018-02-02T13:00:47.722Z,5.10
2018-02-02T13:03:14.604Z,5.50
2018-02-02T13:05:41.478Z,5.68
2018-02-02T13:08:08.302Z,5.45
2018-02-02T13:10:35.164Z,5.00
2018-02-02T13:13:02.008Z,5.15
2018-02-02T13:15:28.865Z,5.25
2018-02-02T13:17:55.716Z,5.43
2018-02-02T13:20:22.530Z,5.60
2018-02-02T13:22:49.380Z,5.32
2018-02-02T13:25:16.178Z,5.60
2018-02-02T13:27:43.037Z,5.33
2018-02-02T13:30:09.875Z,5.33
2018-02-02T13:32:37.108Z,6.78
2018-02-02T13:35:03.952Z,6.20
2018-02-02T13:37:30.778Z,8.10
2018-02-02T13:39:57.580Z,5.60
2018-02-02T13:42:24.405Z,5.70
2018-02-02T13:44:51.218Z,6.20
2018-02-02T13:47:18.088Z,7.15
2018-02-02T13:49:44.910Z,5.95
2018-02-02T13:52:11.742Z,6.30
2018-02-02T13:54:38.628Z,6.20
2018-02-02T13:57:05.475Z,5.90
2018-02-02T13:59:32.302Z,5.93
2018-02-02T14:01:59.160Z,5.82
2018-02-02T14:04:26.048Z,6.20
2018-02-02T14:06:52.899Z,5.75
2018-02-02T14:09:19.740Z,6.30
2018-02-02T14:11:46.634Z,6.57
2018-02-02T14:14:13.483Z,6.13
2018-02-02T14:16:40.299Z,5.60
2018-02-02T14:19:07.148Z,6.47
2018-02-02T14:21:34.012Z,7.07
2018-02-02T14:24:00.852Z,6.28
2018-02-02T14:26:27.704Z,6.80
2018-02-02T14:28:54.572Z,6.18
2018-02-02T14:31:21.415Z,6.78
2018-02-02T14:33:48.597Z,7.10
2018-02-02T14:36:15.448Z,7.43
2018-02-02T14:38:42.282Z,7.10
2018-02-02T14:41:09.144Z,7.40
2018-02-02T14:43:35.978Z,7.18
2018-02-02T14:46:02.860Z,7.80
2018-02-02T14:48:29.698Z,8.10
2018-02-02T14:50:56.551Z,7.78
2018-02-02T14:53:23.433Z,7.95
2018-02-02T14:55:50.285Z,11.45
2018-02-02T14:58:17.158Z,13.45
2018-02-02T15:00:44.005Z,7.50
2018-02-02T15:03:10.829Z,8.23
2018-02-02T15:05:37.642Z,7.32
2018-02-02T15:08:04.515Z,7.35
2018-02-02T15:10:31.380Z,7.60
2018-02-02T15:12:58.292Z,7.93
2018-02-02T15:15:25.439Z,7.70
2018-02-02T15:17:52.300Z,26.87
2018-02-02T15:20:19.159Z,8.20
2018-02-02T15:22:45.995Z,8.02
2018-02-02T15:25:12.818Z,8.73
2018-02-02T15:27:39.650Z,8.20
2018-02-02T15:30:06.523Z,8.00
2018-02-02T15:32:33.440Z,7.97
2018-02-02T15:35:00.262Z,7.45
2018-02-02T15:37:27.138Z,7.68
2018-02-02T15:39:54.029Z,7.70
2018-02-02T15:42:20.926Z,8.35
2018-02-02T15:44:47.755Z,8.63
2018-02-02T15:47:14.603Z,8.60
2018-02-02T15:49:41.452Z,8.27
2018-02-02T15:52:08.301Z,7.70
2018-02-02T15:54:35.200Z,8.13
2018-02-02T15:57:02.309Z,7.60
2018-02-02T15:59:29.164Z,8.25
2018-02-02T16:01:56.020Z,7.87
2018-02-02T16:04:22.915Z,8.10
2018-02-02T16:06:49.719Z,8.20
2018-02-02T16:09:16.604Z,8.37
2018-02-02T16:11:43.652Z,8.00
2018-02-02T16:14:10.523Z,8.25
2018-02-02T16:16:37.355Z,7.95
2018-02-02T16:19:04.212Z,7.95
2018-02-02T16:21:31.046Z,8.23
2018-02-02T16:23:58.181Z,8.60
2018-02-02T16:26:25.019Z,8.52
2018-02-02T16:28:51.830Z,9.57
2018-02-02T16:31:18.658Z,9.40
2018-02-02T16:33:45.492Z,9.50
2018-02-02T16:36:12.302Z,8.93
2018-02-02T16:38:39.179Z,8.45
2018-02-02T16:41:06.020Z,9.45
2018-02-02T16:43:32.896Z,9.10
2018-02-02T16:45:59.739Z,9.18
2018-02-02T16:48:26.604Z,9.90
2018-02-02T16:50:53.468Z,9.43
2018-02-02T16:53:20.339Z,11.60
2018-02-02T16:55:47.214Z,10.30
2018-02-02T16:58:14.042Z,11.00
2018-02-02T17:00:40.916Z,10.30
2018-02-02T17:03:08.076Z,10.90
2018-02-02T17:05:35.228Z,10.68
2018-02-02T17:08:02.068Z,9.90
2018-02-02T17:10:28.939Z,10.30
2018-02-02T17:12:55.758Z,10.57
2018-02-02T17:15:22.590Z,10.88
2018-02-02T17:17:49.460Z,10.02
2018-02-02T17:20:16.289Z,11.75
2018-02-02T17:22:43.144Z,11.00
2018-02-02T17:25:10.001Z,11.05
2018-02-02T17:27:36.872Z,11.68
2018-02-02T17:30:03.728Z,11.07
2018-02-02T17:32:30.588Z,12.50
2018-02-02T17:34:57.520Z,12.83
2018-02-02T17:37:24.326Z,12.90
2018-02-02T17:39:51.192Z,13.20
2018-02-02T17:42:18.020Z,12.77
2018-02-02T17:44:44.880Z,12.93
2018-02-02T17:47:11.710Z,12.75
2018-02-02T17:49:38.679Z,12.82
2018-02-02T17:52:05.495Z,12.45
2018-02-02T17:54:32.603Z,13.30
2018-02-02T17:56:59.477Z,13.83
2018-02-02T17:59:26.294Z,13.40
2018-02-02T18:01:53.127Z,13.62
2018-02-02T18:04:19.988Z,12.82
2018-02-02T18:06:46.863Z,12.25
2018-02-02T18:09:13.701Z,12.50
2018-02-02T18:11:40.548Z,12.15
2018-02-02T18:14:07.407Z,12.00
2018-02-02T18:16:34.272Z,11.35
2018-02-02T18:19:01.135Z,10.70
2018-02-02T18:21:27.979Z,20.52
2018-02-02T18:23:55.132Z,20.23
2018-02-02T18:26:22.028Z,15.75
2018-02-02T18:28:48.870Z,18.23
2018-02-02T18:31:15.706Z,25.48
2018-02-02T18:33:42.542Z,14.57
2018-02-02T18:36:09.416Z,11.70
2018-02-02T18:38:36.232Z,11.40
2018-02-02T18:41:03.078Z,11.95
2018-02-02T18:43:29.936Z,10.77
2018-02-02T18:45:56.763Z,10.43
2018-02-02T18:48:23.628Z,10.13
2018-02-02T18:50:50.502Z,10.27
2018-02-02T18:53:17.338Z,10.52
2018-02-02T18:55:44.171Z,9.90
2018-02-02T18:58:11.042Z,10.25
2018-02-02T19:00:37.875Z,12.80
2018-02-02T19:03:04.704Z,11.40
2018-02-02T19:05:31.542Z,11.25
2018-02-02T19:07:58.382Z,11.20
2018-02-02T19:10:25.563Z,10.90
2018-02-02T19:12:52.415Z,11.00
2018-02-02T19:15:19.255Z,11.23
2018-02-02T19:17:46.090Z,13.80
2018-02-02T19:20:13.260Z,11.57
2018-02-02T19:22:40.094Z,11.48
2018-02-02T19:25:06.933Z,11.20
2018-02-02T19:27:33.777Z,10.52
2018-02-02T19:30:00.632Z,11.15
2018-02-02T19:32:27.759Z,11.23
2018-02-02T19:34:54.593Z,12.00
2018-02-02T19:37:21.584Z,12.70
2018-02-02T19:39:48.699Z,14.18
2018-02-02T19:42:15.542Z,14.30
2018-02-02T19:44:42.359Z,14.00
2018-02-02T19:47:09.208Z,13.32
2018-02-02T19:49:36.071Z,13.18
2018-02-02T19:52:02.890Z,13.27
2018-02-02T19:54:29.756Z,12.40
2018-02-02T19:56:56.586Z,12.13
2018-02-02T19:59:23.435Z,12.00
2018-02-02T20:01:50.306Z,13.40
2018-02-02T20:04:17.164Z,12.45
2018-02-02T20:06:44.003Z,12.70
2018-02-02T20:09:10.827Z,13.38
2018-02-02T20:11:37.660Z,14.70
2018-02-02T20:14:04.548Z,16.40
2018-02-02T20:16:31.378Z,15.90
2018-02-02T20:18:58.499Z,16.27
2018-02-02T20:21:25.367Z,15.35
2018-02-02T20:23:52.216Z,16.90
2018-02-02T20:26:19.052Z,16.08
2018-02-02T20:28:45.911Z,17.25
2018-02-02T20:31:12.800Z,17.70
2018-02-02T20:33:39.648Z,15.80
2018-02-02T20:36:06.576Z,16.27
2018-02-02T20:38:33.420Z,15.52
2018-02-02T20:41:00.274Z,16.00
2018-02-02T20:43:27.094Z,17.20
2018-02-02T20:45:53.978Z,16.48
2018-02-02T20:48:20.854Z,16.12
2018-02-02T20:50:47.706Z,16.80
2018-02-02T20:53:14.564Z,15.85
2018-02-02T20:55:41.378Z,14.60
2018-02-02T20:58:08.268Z,15.93
2018-02-02T21:00:35.091Z,18.98
2018-02-02T21:03:01.944Z,44.30
2018-02-02T21:05:28.808Z,45.28
2018-02-02T21:07:55.638Z,39.97
2018-02-02T21:10:22.507Z,31.55
2018-02-02T21:12:49.333Z,18.27
2018-02-02T21:15:16.398Z,17.15
2018-02-02T21:17:43.547Z,15.38
2018-02-02T21:20:10.417Z,16.20
2018-02-02T21:22:37.250Z,15.43
2018-02-02T21:25:04.076Z,14.77
2018-02-02T21:27:30.938Z,15.07
2018-02-02T21:29:57.778Z,14.40
2018-02-02T21:32:24.607Z,13.00
2018-02-02T21:34:51.475Z,12.80
2018-02-02T21:37:18.300Z,13.13
2018-02-02T21:39:45.142Z,14.47
2018-02-02T21:42:11.990Z,15.07
2018-02-02T21:44:38.827Z,16.17
2018-02-02T21:47:05.728Z,16.75
2018-02-02T21:49:32.542Z,17.30
2018-02-02T21:51:59.663Z,16.30
2018-02-02T21:54:26.486Z,16.65
2018-02-02T21:56:53.402Z,16.55
2018-02-02T21:59:20.251Z,18.37
2018-02-02T22:01:47.107Z,17.77
2018-02-02T22:04:13.984Z,27.10
2018-02-02T22:06:40.823Z,25.88
2018-02-02T22:09:07.680Z,39.00
2018-02-02T22:11:34.576Z,38.03
2018-02-02T22:14:01.414Z,30.88
2018-02-02T22:16:28.259Z,25.02
2018-02-02T22:18:55.098Z,17.67
2018-02-02T22:21:21.947Z,16.83
2018-02-02T22:23:48.828Z,15.77
2018-02-02T22:26:15.691Z,17.40
2018-02-02T22:28:42.852Z,17.33
2018-02-02T22:31:09.772Z,22.08
2018-02-02T22:33:36.623Z,23.02
2018-02-02T22:36:03.758Z,28.47
2018-02-02T22:38:30.915Z,25.25
2018-02-02T22:40:57.816Z,23.65
2018-02-02T22:43:25.012Z,19.73
2018-02-02T22:45:51.868Z,18.52
2018-02-02T22:48:18.735Z,17.83
2018-02-02T22:50:45.585Z,18.23
2018-02-02T22:53:12.452Z,16.90
2018-02-02T22:55:39.302Z,15.32
2018-02-02T22:58:06.160Z,14.82
2018-02-02T23:00:33.035Z,14.82
2018-02-02T23:03:00.163Z,15.15
2018-02-02T23:05:27.019Z,15.95
2018-02-02T23:07:54.272Z,17.60
2018-02-02T23:10:21.091Z,20.25
2018-02-02T23:12:47.964Z,19.37
2018-02-02T23:15:15.000Z,21.48
2018-02-02T23:17:41.846Z,19.35
2018-02-02T23:20:08.708Z,18.58
2018-02-02T23:22:35.616Z,17.70
2018-02-02T23:25:02.458Z,17.50
2018-02-02T23:27:29.338Z,18.15
2018-02-02T23:29:56.196Z,21.35
2018-02-02T23:32:23.019Z,21.65
2018-02-02T23:34:49.866Z,20.73
2018-02-02T23:37:16.772Z,20.90
2018-02-02T23:39:43.667Z,19.25
2018-02-02T23:42:10.533Z,19.02
2018-02-02T23:44:37.402Z,17.27
2018-02-02T23:47:04.573Z,20.58
2018-02-02T23:49:31.422Z,20.10
2018-02-02T23:51:58.301Z,20.33
2018-02-02T23:54:25.216Z,20.27
2018-02-02T23:56:52.203Z,20.27
2018-02-02T23:59:19.073Z,20.08
